sensor_id;sensor_type;location;lat;lon;timestamp;P1;durP1;ratioP1;P2;durP2;ratioP2
79338;SDS011;74181;41.704;44.786;2024-02-04T00:00:10;7.75;;;3.15;;
79338;SDS011;74181;41.704;44.786;2024-02-04T00:02:38;7.15;;;3.10;;
79338;SDS011;74181;41.704;44.786;2024-02-04T00:05:05;9.93;;;3.27;;
79338;SDS011;74181;41.704;44.786;2024-02-04T00:07:31;7.53;;;2.72;;
79338;SDS011;74181;41.704;44.786;2024-02-04T00:09:57;7.50;;;3.00;;
79338;SDS011;74181;41.704;44.786;2024-02-04T00:12:23;7.63;;;2.70;;
79338;SDS011;74181;41.704;44.786;2024-02-04T00:14:49;5.97;;;2.70;;
79338;SDS011;74181;41.704;44.786;2024-02-04T00:17:16;6.53;;;2.63;;
79338;SDS011;74181;41.704;44.786;2024-02-04T00:19:42;6.63;;;2.83;;
79338;SDS011;74181;41.704;44.786;2024-02-04T00:22:09;6.20;;;2.70;;
79338;SDS011;74181;41.704;44.786;2024-02-04T00:24:35;8.05;;;3.00;;
79338;SDS011;74181;41.704;44.786;2024-02-04T00:27:01;6.80;;;2.85;;
79338;SDS011;74181;41.704;44.786;2024-02-04T00:29:27;6.83;;;2.70;;
79338;SDS011;74181;41.704;44.786;2024-02-04T00:31:54;7.47;;;2.85;;
79338;SDS011;74181;41.704;44.786;2024-02-04T00:34:20;6.40;;;2.80;;
79338;SDS011;74181;41.704;44.786;2024-02-04T00:36:46;5.32;;;2.60;;
79338;SDS011;74181;41.704;44.786;2024-02-04T00:39:12;6.32;;;2.83;;
79338;SDS011;74181;41.704;44.786;2024-02-04T00:41:38;5.37;;;2.40;;
79338;SDS011;74181;41.704;44.786;2024-02-04T00:44:04;5.95;;;2.60;;
79338;SDS011;74181;41.704;44.786;2024-02-04T00:46:30;5.18;;;2.45;;
79338;SDS011;74181;41.704;44.786;2024-02-04T00:48:56;6.45;;;2.78;;
79338;SDS011;74181;41.704;44.786;2024-02-04T00:51:23;6.20;;;3.08;;
79338;SDS011;74181;41.704;44.786;2024-02-04T00:53:49;5.80;;;2.57;;
79338;SDS011;74181;41.704;44.786;2024-02-04T00:56:15;5.70;;;2.42;;
79338;SDS011;74181;41.704;44.786;2024-02-04T00:58:41;6.38;;;3.05;;
79338;SDS011;74181;41.704;44.786;2024-02-04T01:01:07;7.68;;;2.60;;
79338;SDS011;74181;41.704;44.786;2024-02-04T01:03:33;5.63;;;2.40;;
79338;SDS011;74181;41.704;44.786;2024-02-04T01:06:00;5.50;;;2.23;;
79338;SDS011;74181;41.704;44.786;2024-02-04T01:08:28;6.30;;;2.67;;
79338;SDS011;74181;41.704;44.786;2024-02-04T01:11:05;5.75;;;2.60;;
79338;SDS011;74181;41.704;44.786;2024-02-04T01:13:31;5.70;;;2.50;;
79338;SDS011;74181;41.704;44.786;2024-02-04T01:15:57;5.55;;;2.40;;
79338;SDS011;74181;41.704;44.786;2024-02-04T01:18:23;5.97;;;2.63;;
79338;SDS011;74181;41.704;44.786;2024-02-04T01:20:49;6.18;;;2.53;;
79338;SDS011;74181;41.704;44.786;2024-02-04T01:23:16;6.40;;;2.75;;
79338;SDS011;74181;41.704;44.786;2024-02-04T01:25:45;6.28;;;2.63;;
79338;SDS011;74181;41.704;44.786;2024-02-04T01:28:11;5.55;;;2.53;;
79338;SDS011;74181;41.704;44.786;2024-02-04T01:30:37;6.63;;;2.47;;
79338;SDS011;74181;41.704;44.786;2024-02-04T01:33:04;6.07;;;2.80;;
79338;SDS011;74181;41.704;44.786;2024-02-04T01:35:30;5.65;;;2.70;;
79338;SDS011;74181;41.704;44.786;2024-02-04T01:37:56;7.07;;;2.60;;
79338;SDS011;74181;41.704;44.786;2024-02-04T01:40:22;4.97;;;2.22;;
79338;SDS011;74181;41.704;44.786;2024-02-04T01:42:48;5.53;;;2.47;;
79338;SDS011;74181;41.704;44.786;2024-02-04T01:45:14;6.70;;;2.45;;
79338;SDS011;74181;41.704;44.786;2024-02-04T01:47:41;4.80;;;2.25;;
79338;SDS011;74181;41.704;44.786;2024-02-04T01:50:07;5.00;;;2.47;;
79338;SDS011;74181;41.704;44.786;2024-02-04T01:52:35;5.60;;;2.60;;
79338;SDS011;74181;41.704;44.786;2024-02-04T01:55:04;5.83;;;2.50;;
79338;SDS011;74181;41.704;44.786;2024-02-04T01:57:34;5.32;;;2.60;;
79338;SDS011;74181;41.704;44.786;2024-02-04T02:00:00;6.00;;;2.55;;
79338;SDS011;74181;41.704;44.786;2024-02-04T02:02:32;6.82;;;2.78;;
79338;SDS011;74181;41.704;44.786;2024-02-04T02:05:00;7.50;;;2.63;;
79338;SDS011;74181;41.704;44.786;2024-02-04T02:07:26;6.67;;;2.87;;
79338;SDS011;74181;41.704;44.786;2024-02-04T02:09:53;5.70;;;2.45;;
79338;SDS011;74181;41.704;44.786;2024-02-04T02:12:22;5.50;;;2.60;;
79338;SDS011;74181;41.704;44.786;2024-02-04T02:14:56;6.47;;;2.88;;
79338;SDS011;74181;41.704;44.786;2024-02-04T02:17:41;5.78;;;2.40;;
79338;SDS011;74181;41.704;44.786;2024-02-04T02:23:34;6.78;;;2.70;;
79338;SDS011;74181;41.704;44.786;2024-02-04T02:26:02;6.05;;;2.65;;
79338;SDS011;74181;41.704;44.786;2024-02-04T02:28:30;5.68;;;2.38;;
79338;SDS011;74181;41.704;44.786;2024-02-04T02:30:56;5.57;;;2.53;;
79338;SDS011;74181;41.704;44.786;2024-02-04T02:33:22;5.83;;;2.73;;
79338;SDS011;74181;41.704;44.786;2024-02-04T02:35:49;6.82;;;2.78;;
79338;SDS011;74181;41.704;44.786;2024-02-04T02:38:37;5.22;;;2.22;;
79338;SDS011;74181;41.704;44.786;2024-02-04T02:41:15;5.45;;;2.47;;
79338;SDS011;74181;41.704;44.786;2024-02-04T02:43:42;4.88;;;2.33;;
79338;SDS011;74181;41.704;44.786;2024-02-04T02:46:08;5.67;;;2.37;;
79338;SDS011;74181;41.704;44.786;2024-02-04T02:48:35;6.00;;;2.58;;
79338;SDS011;74181;41.704;44.786;2024-02-04T02:51:01;5.95;;;2.60;;
79338;SDS011;74181;41.704;44.786;2024-02-04T02:53:27;5.43;;;2.55;;
79338;SDS011;74181;41.704;44.786;2024-02-04T02:55:54;6.40;;;2.63;;
79338;SDS011;74181;41.704;44.786;2024-02-04T02:58:20;5.00;;;2.40;;
79338;SDS011;74181;41.704;44.786;2024-02-04T03:00:46;8.57;;;2.65;;
79338;SDS011;74181;41.704;44.786;2024-02-04T03:03:12;5.88;;;2.80;;
79338;SDS011;74181;41.704;44.786;2024-02-04T03:05:38;5.28;;;2.30;;
79338;SDS011;74181;41.704;44.786;2024-02-04T03:08:05;5.40;;;2.60;;
79338;SDS011;74181;41.704;44.786;2024-02-04T03:10:31;5.73;;;2.50;;
79338;SDS011;74181;41.704;44.786;2024-02-04T03:12:57;6.82;;;2.90;;
79338;SDS011;74181;41.704;44.786;2024-02-04T03:15:24;7.95;;;2.80;;
79338;SDS011;74181;41.704;44.786;2024-02-04T03:17:50;6.15;;;2.75;;
79338;SDS011;74181;41.704;44.786;2024-02-04T03:20:17;6.53;;;2.92;;
79338;SDS011;74181;41.704;44.786;2024-02-04T03:22:43;5.87;;;2.87;;
79338;SDS011;74181;41.704;44.786;2024-02-04T03:25:10;6.90;;;2.80;;
79338;SDS011;74181;41.704;44.786;2024-02-04T03:27:36;6.07;;;2.60;;
79338;SDS011;74181;41.704;44.786;2024-02-04T03:30:03;7.20;;;2.90;;
79338;SDS011;74181;41.704;44.786;2024-02-04T03:32:30;6.80;;;2.88;;
79338;SDS011;74181;41.704;44.786;2024-02-04T03:35:00;5.60;;;2.40;;
79338;SDS011;74181;41.704;44.786;2024-02-04T03:37:30;7.20;;;2.15;;
79338;SDS011;74181;41.704;44.786;2024-02-04T03:39:56;5.35;;;2.38;;
79338;SDS011;74181;41.704;44.786;2024-02-04T03:42:22;4.85;;;2.20;;
79338;SDS011;74181;41.704;44.786;2024-02-04T03:44:49;6.93;;;2.58;;
79338;SDS011;74181;41.704;44.786;2024-02-04T03:47:15;6.10;;;2.33;;
79338;SDS011;74181;41.704;44.786;2024-02-04T03:49:41;5.70;;;2.50;;
79338;SDS011;74181;41.704;44.786;2024-02-04T03:52:07;4.95;;;2.35;;
79338;SDS011;74181;41.704;44.786;2024-02-04T03:54:33;6.03;;;2.45;;
79338;SDS011;74181;41.704;44.786;2024-02-04T03:57:00;5.88;;;2.40;;
79338;SDS011;74181;41.704;44.786;2024-02-04T03:59:26;5.67;;;2.50;;
79338;SDS011;74181;41.704;44.786;2024-02-04T04:01:52;6.88;;;2.90;;
79338;SDS011;74181;41.704;44.786;2024-02-04T04:04:23;5.85;;;2.47;;
79338;SDS011;74181;41.704;44.786;2024-02-04T04:06:49;7.20;;;2.70;;
79338;SDS011;74181;41.704;44.786;2024-02-04T04:09:15;6.35;;;2.53;;
79338;SDS011;74181;41.704;44.786;2024-02-04T04:11:41;5.33;;;2.40;;
79338;SDS011;74181;41.704;44.786;2024-02-04T04:14:08;8.05;;;3.03;;
79338;SDS011;74181;41.704;44.786;2024-02-04T04:16:34;6.90;;;2.80;;
79338;SDS011;74181;41.704;44.786;2024-02-04T04:19:00;7.03;;;2.72;;
79338;SDS011;74181;41.704;44.786;2024-02-04T04:21:26;6.40;;;2.60;;
79338;SDS011;74181;41.704;44.786;2024-02-04T04:23:52;6.47;;;2.77;;
79338;SDS011;74181;41.704;44.786;2024-02-04T04:26:18;6.72;;;2.60;;
79338;SDS011;74181;41.704;44.786;2024-02-04T04:28:44;6.63;;;2.67;;
79338;SDS011;74181;41.704;44.786;2024-02-04T04:31:10;5.22;;;2.30;;
79338;SDS011;74181;41.704;44.786;2024-02-04T04:33:37;6.63;;;2.83;;
79338;SDS011;74181;41.704;44.786;2024-02-04T04:36:03;7.67;;;3.37;;
79338;SDS011;74181;41.704;44.786;2024-02-04T04:38:32;9.75;;;3.60;;
79338;SDS011;74181;41.704;44.786;2024-02-04T04:41:04;7.60;;;3.28;;
79338;SDS011;74181;41.704;44.786;2024-02-04T04:43:30;9.73;;;4.03;;
79338;SDS011;74181;41.704;44.786;2024-02-04T04:45:57;9.50;;;3.80;;
79338;SDS011;74181;41.704;44.786;2024-02-04T04:48:23;8.47;;;3.60;;
79338;SDS011;74181;41.704;44.786;2024-02-04T04:50:49;8.55;;;3.38;;
79338;SDS011;74181;41.704;44.786;2024-02-04T04:53:15;7.28;;;2.95;;
79338;SDS011;74181;41.704;44.786;2024-02-04T04:55:41;7.82;;;2.90;;
79338;SDS011;74181;41.704;44.786;2024-02-04T04:58:07;6.80;;;2.72;;
79338;SDS011;74181;41.704;44.786;2024-02-04T05:00:34;7.23;;;2.80;;
79338;SDS011;74181;41.704;44.786;2024-02-04T05:03:00;6.78;;;2.70;;
79338;SDS011;74181;41.704;44.786;2024-02-04T05:05:27;6.45;;;2.67;;
79338;SDS011;74181;41.704;44.786;2024-02-04T05:07:53;6.18;;;2.58;;
79338;SDS011;74181;41.704;44.786;2024-02-04T05:10:19;6.10;;;2.60;;
79338;SDS011;74181;41.704;44.786;2024-02-04T05:12:45;7.27;;;2.73;;
79338;SDS011;74181;41.704;44.786;2024-02-04T05:15:11;6.57;;;2.50;;
79338;SDS011;74181;41.704;44.786;2024-02-04T05:17:38;6.65;;;2.55;;
79338;SDS011;74181;41.704;44.786;2024-02-04T05:20:04;5.63;;;2.50;;
79338;SDS011;74181;41.704;44.786;2024-02-04T05:22:32;7.15;;;3.00;;
79338;SDS011;74181;41.704;44.786;2024-02-04T05:24:58;5.63;;;2.43;;
79338;SDS011;74181;41.704;44.786;2024-02-04T05:27:24;6.32;;;3.03;;
79338;SDS011;74181;41.704;44.786;2024-02-04T05:29:51;9.98;;;3.10;;
79338;SDS011;74181;41.704;44.786;2024-02-04T05:32:17;7.18;;;2.72;;
79338;SDS011;74181;41.704;44.786;2024-02-04T05:34:43;8.23;;;2.95;;
79338;SDS011;74181;41.704;44.786;2024-02-04T05:37:09;7.33;;;2.63;;
79338;SDS011;74181;41.704;44.786;2024-02-04T05:39:39;10.10;;;3.50;;
79338;SDS011;74181;41.704;44.786;2024-02-04T05:42:05;8.32;;;2.97;;
79338;SDS011;74181;41.704;44.786;2024-02-04T05:44:31;6.93;;;3.05;;
79338;SDS011;74181;41.704;44.786;2024-02-04T05:46:57;6.97;;;3.22;;
79338;SDS011;74181;41.704;44.786;2024-02-04T05:49:24;7.27;;;2.70;;
79338;SDS011;74181;41.704;44.786;2024-02-04T05:51:50;7.68;;;3.20;;
79338;SDS011;74181;41.704;44.786;2024-02-04T05:54:16;7.15;;;3.10;;
79338;SDS011;74181;41.704;44.786;2024-02-04T05:56:42;7.75;;;3.10;;
79338;SDS011;74181;41.704;44.786;2024-02-04T05:59:09;7.43;;;3.30;;
79338;SDS011;74181;41.704;44.786;2024-02-04T06:01:37;9.17;;;3.33;;
79338;SDS011;74181;41.704;44.786;2024-02-04T06:04:03;7.65;;;3.40;;
79338;SDS011;74181;41.704;44.786;2024-02-04T06:06:29;7.13;;;3.53;;
79338;SDS011;74181;41.704;44.786;2024-02-04T06:08:56;7.72;;;3.38;;
79338;SDS011;74181;41.704;44.786;2024-02-04T06:11:22;7.32;;;3.50;;
79338;SDS011;74181;41.704;44.786;2024-02-04T06:13:48;7.83;;;3.50;;
79338;SDS011;74181;41.704;44.786;2024-02-04T06:16:15;10.30;;;3.72;;
79338;SDS011;74181;41.704;44.786;2024-02-04T06:18:42;8.57;;;3.90;;
79338;SDS011;74181;41.704;44.786;2024-02-04T06:21:08;8.68;;;3.80;;
79338;SDS011;74181;41.704;44.786;2024-02-04T06:23:34;8.55;;;3.88;;
79338;SDS011;74181;41.704;44.786;2024-02-04T06:26:04;8.10;;;3.77;;
79338;SDS011;74181;41.704;44.786;2024-02-04T06:28:31;12.43;;;3.90;;
79338;SDS011;74181;41.704;44.786;2024-02-04T06:30:57;8.05;;;3.65;;
79338;SDS011;74181;41.704;44.786;2024-02-04T06:33:24;8.63;;;3.78;;
79338;SDS011;74181;41.704;44.786;2024-02-04T06:35:53;9.70;;;3.60;;
79338;SDS011;74181;41.704;44.786;2024-02-04T06:38:20;9.90;;;3.77;;
79338;SDS011;74181;41.704;44.786;2024-02-04T06:40:46;10.15;;;3.85;;
79338;SDS011;74181;41.704;44.786;2024-02-04T06:43:12;9.85;;;3.85;;
79338;SDS011;74181;41.704;44.786;2024-02-04T06:45:39;11.82;;;4.20;;
79338;SDS011;74181;41.704;44.786;2024-02-04T06:48:06;10.20;;;4.10;;
79338;SDS011;74181;41.704;44.786;2024-02-04T06:50:33;11.07;;;4.07;;
79338;SDS011;74181;41.704;44.786;2024-02-04T06:52:59;8.00;;;3.65;;
79338;SDS011;74181;41.704;44.786;2024-02-04T06:55:25;9.25;;;3.95;;
79338;SDS011;74181;41.704;44.786;2024-02-04T06:57:52;8.70;;;4.10;;
79338;SDS011;74181;41.704;44.786;2024-02-04T07:00:18;9.50;;;4.10;;
79338;SDS011;74181;41.704;44.786;2024-02-04T07:02:45;10.23;;;4.60;;
79338;SDS011;74181;41.704;44.786;2024-02-04T07:05:14;8.50;;;4.25;;
79338;SDS011;74181;41.704;44.786;2024-02-04T07:07:41;9.02;;;3.90;;
79338;SDS011;74181;41.704;44.786;2024-02-04T07:10:07;10.15;;;4.25;;
79338;SDS011;74181;41.704;44.786;2024-02-04T07:12:34;10.20;;;4.10;;
79338;SDS011;74181;41.704;44.786;2024-02-04T07:15:00;9.23;;;3.90;;
79338;SDS011;74181;41.704;44.786;2024-02-04T07:17:26;7.32;;;3.70;;
79338;SDS011;74181;41.704;44.786;2024-02-04T07:19:53;10.85;;;4.63;;
79338;SDS011;74181;41.704;44.786;2024-02-04T07:22:19;9.27;;;4.30;;
79338;SDS011;74181;41.704;44.786;2024-02-04T07:24:45;9.55;;;4.40;;
79338;SDS011;74181;41.704;44.786;2024-02-04T07:27:11;10.50;;;4.20;;
79338;SDS011;74181;41.704;44.786;2024-02-04T07:29:41;10.75;;;4.85;;
79338;SDS011;74181;41.704;44.786;2024-02-04T07:32:08;10.77;;;4.68;;
79338;SDS011;74181;41.704;44.786;2024-02-04T07:34:34;10.10;;;4.43;;
79338;SDS011;74181;41.704;44.786;2024-02-04T07:37:00;11.13;;;4.90;;
79338;SDS011;74181;41.704;44.786;2024-02-04T07:39:26;10.50;;;4.40;;
79338;SDS011;74181;41.704;44.786;2024-02-04T07:41:52;9.32;;;4.07;;
79338;SDS011;74181;41.704;44.786;2024-02-04T07:44:19;9.70;;;4.40;;
79338;SDS011;74181;41.704;44.786;2024-02-04T07:46:46;8.90;;;4.20;;
79338;SDS011;74181;41.704;44.786;2024-02-04T07:49:12;10.93;;;4.60;;
79338;SDS011;74181;41.704;44.786;2024-02-04T07:51:38;8.37;;;4.00;;
79338;SDS011;74181;41.704;44.786;2024-02-04T07:54:04;12.20;;;4.15;;
79338;SDS011;74181;41.704;44.786;2024-02-04T07:56:31;11.07;;;4.75;;
79338;SDS011;74181;41.704;44.786;2024-02-04T07:58:57;9.43;;;4.60;;
79338;SDS011;74181;41.704;44.786;2024-02-04T08:01:23;9.38;;;4.30;;
79338;SDS011;74181;41.704;44.786;2024-02-04T08:03:50;11.37;;;4.67;;
79338;SDS011;74181;41.704;44.786;2024-02-04T08:06:16;9.73;;;5.03;;
79338;SDS011;74181;41.704;44.786;2024-02-04T08:08:43;12.35;;;5.22;;
79338;SDS011;74181;41.704;44.786;2024-02-04T08:11:10;10.75;;;5.15;;
79338;SDS011;74181;41.704;44.786;2024-02-04T08:13:36;15.15;;;5.70;;
79338;SDS011;74181;41.704;44.786;2024-02-04T08:16:02;12.67;;;5.00;;
79338;SDS011;74181;41.704;44.786;2024-02-04T08:18:29;12.35;;;4.80;;
79338;SDS011;74181;41.704;44.786;2024-02-04T08:20:55;10.98;;;5.07;;
79338;SDS011;74181;41.704;44.786;2024-02-04T08:23:21;11.95;;;4.97;;
79338;SDS011;74181;41.704;44.786;2024-02-04T08:25:51;10.00;;;4.80;;
79338;SDS011;74181;41.704;44.786;2024-02-04T08:28:17;10.00;;;4.73;;
79338;SDS011;74181;41.704;44.786;2024-02-04T08:30:44;12.30;;;4.97;;
79338;SDS011;74181;41.704;44.786;2024-02-04T08:33:11;13.43;;;5.53;;
79338;SDS011;74181;41.704;44.786;2024-02-04T08:35:37;12.23;;;5.30;;
79338;SDS011;74181;41.704;44.786;2024-02-04T08:38:03;9.43;;;4.85;;
79338;SDS011;74181;41.704;44.786;2024-02-04T08:40:29;13.07;;;5.67;;
79338;SDS011;74181;41.704;44.786;2024-02-04T08:42:55;12.15;;;5.70;;
79338;SDS011;74181;41.704;44.786;2024-02-04T08:45:21;13.55;;;5.75;;
79338;SDS011;74181;41.704;44.786;2024-02-04T08:47:48;12.07;;;5.10;;
79338;SDS011;74181;41.704;44.786;2024-02-04T08:50:14;11.50;;;5.65;;
79338;SDS011;74181;41.704;44.786;2024-02-04T08:52:41;11.63;;;5.20;;
79338;SDS011;74181;41.704;44.786;2024-02-04T08:55:07;12.48;;;5.47;;
79338;SDS011;74181;41.704;44.786;2024-02-04T08:57:34;15.07;;;6.13;;
79338;SDS011;74181;41.704;44.786;2024-02-04T09:00:00;15.00;;;6.40;;
79338;SDS011;74181;41.704;44.786;2024-02-04T09:02:30;14.57;;;5.68;;
79338;SDS011;74181;41.704;44.786;2024-02-04T09:04:56;14.70;;;5.43;;
79338;SDS011;74181;41.704;44.786;2024-02-04T09:07:23;13.00;;;5.95;;
79338;SDS011;74181;41.704;44.786;2024-02-04T09:09:49;14.48;;;6.25;;
79338;SDS011;74181;41.704;44.786;2024-02-04T09:12:15;13.30;;;6.40;;
79338;SDS011;74181;41.704;44.786;2024-02-04T09:14:41;12.93;;;6.10;;
79338;SDS011;74181;41.704;44.786;2024-02-04T09:17:08;14.00;;;6.10;;
79338;SDS011;74181;41.704;44.786;2024-02-04T09:19:44;14.55;;;6.72;;
79338;SDS011;74181;41.704;44.786;2024-02-04T09:22:11;15.13;;;6.50;;
79338;SDS011;74181;41.704;44.786;2024-02-04T09:24:37;14.50;;;6.72;;
79338;SDS011;74181;41.704;44.786;2024-02-04T09:27:03;16.50;;;6.90;;
79338;SDS011;74181;41.704;44.786;2024-02-04T09:29:29;15.57;;;6.67;;
79338;SDS011;74181;41.704;44.786;2024-02-04T09:31:55;15.75;;;6.78;;
79338;SDS011;74181;41.704;44.786;2024-02-04T09:34:22;15.65;;;6.82;;
79338;SDS011;74181;41.704;44.786;2024-02-04T09:36:48;15.90;;;7.18;;
79338;SDS011;74181;41.704;44.786;2024-02-04T09:39:14;16.55;;;7.55;;
79338;SDS011;74181;41.704;44.786;2024-02-04T09:41:41;17.77;;;7.80;;
79338;SDS011;74181;41.704;44.786;2024-02-04T09:44:09;17.73;;;7.35;;
79338;SDS011;74181;41.704;44.786;2024-02-04T09:46:35;14.82;;;7.05;;
79338;SDS011;74181;41.704;44.786;2024-02-04T09:49:02;14.20;;;7.63;;
79338;SDS011;74181;41.704;44.786;2024-02-04T09:51:28;13.85;;;7.28;;
79338;SDS011;74181;41.704;44.786;2024-02-04T09:53:55;13.23;;;6.53;;
79338;SDS011;74181;41.704;44.786;2024-02-04T09:56:25;13.88;;;6.65;;
79338;SDS011;74181;41.704;44.786;2024-02-04T09:58:51;14.20;;;6.47;;
79338;SDS011;74181;41.704;44.786;2024-02-04T10:01:18;11.07;;;5.95;;
79338;SDS011;74181;41.704;44.786;2024-02-04T10:03:49;15.75;;;6.32;;
79338;SDS011;74181;41.704;44.786;2024-02-04T10:06:15;13.80;;;6.30;;
79338;SDS011;74181;41.704;44.786;2024-02-04T10:08:42;15.07;;;6.25;;
79338;SDS011;74181;41.704;44.786;2024-02-04T10:11:09;12.65;;;6.30;;
79338;SDS011;74181;41.704;44.786;2024-02-04T10:13:45;13.43;;;6.45;;
79338;SDS011;74181;41.704;44.786;2024-02-04T10:16:13;15.30;;;6.32;;
79338;SDS011;74181;41.704;44.786;2024-02-04T10:18:43;14.07;;;6.17;;
79338;SDS011;74181;41.704;44.786;2024-02-04T10:21:18;14.02;;;6.57;;
79338;SDS011;74181;41.704;44.786;2024-02-04T10:23:45;12.88;;;6.50;;
79338;SDS011;74181;41.704;44.786;2024-02-04T10:26:18;12.82;;;6.38;;
79338;SDS011;74181;41.704;44.786;2024-02-04T10:28:47;13.23;;;6.32;;
79338;SDS011;74181;41.704;44.786;2024-02-04T10:31:14;10.73;;;5.13;;
79338;SDS011;74181;41.704;44.786;2024-02-04T10:33:41;10.10;;;5.28;;
79338;SDS011;74181;41.704;44.786;2024-02-04T10:36:07;9.23;;;4.85;;
79338;SDS011;74181;41.704;44.786;2024-02-04T10:50:34;9.95;;;6.03;;
79338;SDS011;74181;41.704;44.786;2024-02-04T10:53:03;10.82;;;5.65;;
79338;SDS011;74181;41.704;44.786;2024-02-04T10:55:33;11.70;;;5.68;;
79338;SDS011;74181;41.704;44.786;2024-02-04T10:58:04;11.07;;;5.03;;
79338;SDS011;74181;41.704;44.786;2024-02-04T11:00:32;12.80;;;5.27;;
79338;SDS011;74181;41.704;44.786;2024-02-04T11:02:58;13.20;;;5.60;;
79338;SDS011;74181;41.704;44.786;2024-02-04T11:05:25;12.25;;;5.47;;
79338;SDS011;74181;41.704;44.786;2024-02-04T11:07:52;10.35;;;5.00;;
79338;SDS011;74181;41.704;44.786;2024-02-04T11:10:18;10.38;;;5.38;;
79338;SDS011;74181;41.704;44.786;2024-02-04T11:12:45;10.47;;;5.37;;
79338;SDS011;74181;41.704;44.786;2024-02-04T11:15:12;10.85;;;5.57;;
79338;SDS011;74181;41.704;44.786;2024-02-04T11:25:54;11.83;;;6.23;;
79338;SDS011;74181;41.704;44.786;2024-02-04T11:28:22;12.52;;;6.35;;
79338;SDS011;74181;41.704;44.786;2024-02-04T11:30:48;13.40;;;6.72;;
79338;SDS011;74181;41.704;44.786;2024-02-04T11:33:20;10.77;;;5.82;;
79338;SDS011;74181;41.704;44.786;2024-02-04T11:35:57;14.32;;;6.85;;
79338;SDS011;74181;41.704;44.786;2024-02-04T11:41:21;13.98;;;5.93;;
79338;SDS011;74181;41.704;44.786;2024-02-04T11:43:53;12.98;;;6.47;;
79338;SDS011;74181;41.704;44.786;2024-02-04T11:46:27;11.00;;;5.75;;
79338;SDS011;74181;41.704;44.786;2024-02-04T11:48:56;10.82;;;5.60;;
79338;SDS011;74181;41.704;44.786;2024-02-04T11:51:22;10.70;;;5.60;;
79338;SDS011;74181;41.704;44.786;2024-02-04T11:53:50;11.55;;;5.40;;
79338;SDS011;74181;41.704;44.786;2024-02-04T11:56:18;11.77;;;5.85;;
79338;SDS011;74181;41.704;44.786;2024-02-04T11:58:44;11.73;;;5.95;;
79338;SDS011;74181;41.704;44.786;2024-02-04T12:01:11;10.35;;;5.10;;
79338;SDS011;74181;41.704;44.786;2024-02-04T12:03:37;12.27;;;5.47;;
79338;SDS011;74181;41.704;44.786;2024-02-04T12:06:04;10.68;;;5.03;;
79338;SDS011;74181;41.704;44.786;2024-02-04T12:08:33;11.15;;;5.28;;
79338;SDS011;74181;41.704;44.786;2024-02-04T12:11:00;11.00;;;5.93;;
79338;SDS011;74181;41.704;44.786;2024-02-04T12:13:27;10.95;;;5.40;;
79338;SDS011;74181;41.704;44.786;2024-02-04T12:15:54;10.30;;;5.83;;
79338;SDS011;74181;41.704;44.786;2024-02-04T12:18:21;11.73;;;6.25;;
79338;SDS011;74181;41.704;44.786;2024-02-04T12:20:47;12.25;;;6.57;;
79338;SDS011;74181;41.704;44.786;2024-02-04T12:23:15;12.02;;;5.90;;
79338;SDS011;74181;41.704;44.786;2024-02-04T12:25:42;11.23;;;6.30;;
79338;SDS011;74181;41.704;44.786;2024-02-04T12:28:09;14.37;;;6.40;;
79338;SDS011;74181;41.704;44.786;2024-02-04T12:30:35;13.40;;;6.38;;
79338;SDS011;74181;41.704;44.786;2024-02-04T12:33:02;14.10;;;6.18;;
79338;SDS011;74181;41.704;44.786;2024-02-04T12:35:33;12.35;;;6.40;;
79338;SDS011;74181;41.704;44.786;2024-02-04T12:37:59;12.35;;;6.53;;
79338;SDS011;74181;41.704;44.786;2024-02-04T12:42:58;12.75;;;6.35;;
79338;SDS011;74181;41.704;44.786;2024-02-04T12:45:27;12.52;;;6.30;;
79338;SDS011;74181;41.704;44.786;2024-02-04T12:47:55;11.32;;;5.60;;
79338;SDS011;74181;41.704;44.786;2024-02-04T12:50:22;13.77;;;6.53;;
79338;SDS011;74181;41.704;44.786;2024-02-04T12:53:10;10.83;;;6.37;;
79338;SDS011;74181;41.704;44.786;2024-02-04T12:55:39;11.25;;;6.50;;
79338;SDS011;74181;41.704;44.786;2024-02-04T13:00:32;16.85;;;6.93;;
79338;SDS011;74181;41.704;44.786;2024-02-04T13:03:00;12.93;;;6.85;;
79338;SDS011;74181;41.704;44.786;2024-02-04T13:05:27;14.60;;;7.00;;
79338;SDS011;74181;41.704;44.786;2024-02-04T13:07:56;16.13;;;7.40;;
79338;SDS011;74181;41.704;44.786;2024-02-04T13:10:24;15.40;;;7.25;;
79338;SDS011;74181;41.704;44.786;2024-02-04T13:13:04;11.82;;;6.53;;
79338;SDS011;74181;41.704;44.786;2024-02-04T13:15:38;12.07;;;6.72;;
79338;SDS011;74181;41.704;44.786;2024-02-04T13:18:05;13.03;;;6.23;;
79338;SDS011;74181;41.704;44.786;2024-02-04T13:20:31;13.02;;;6.38;;
79338;SDS011;74181;41.704;44.786;2024-02-04T13:22:58;11.63;;;6.22;;
79338;SDS011;74181;41.704;44.786;2024-02-04T13:25:26;11.63;;;6.00;;
79338;SDS011;74181;41.704;44.786;2024-02-04T13:27:52;14.23;;;7.13;;
79338;SDS011;74181;41.704;44.786;2024-02-04T13:30:18;13.63;;;6.20;;
79338;SDS011;74181;41.704;44.786;2024-02-04T13:32:45;13.63;;;6.35;;
79338;SDS011;74181;41.704;44.786;2024-02-04T13:35:12;11.35;;;6.10;;
79338;SDS011;74181;41.704;44.786;2024-02-04T13:37:43;10.40;;;5.55;;
79338;SDS011;74181;41.704;44.786;2024-02-04T13:40:17;12.25;;;6.30;;
79338;SDS011;74181;41.704;44.786;2024-02-04T13:42:45;13.10;;;6.10;;
79338;SDS011;74181;41.704;44.786;2024-02-04T13:45:12;12.73;;;6.40;;
79338;SDS011;74181;41.704;44.786;2024-02-04T13:47:45;14.32;;;7.18;;
79338;SDS011;74181;41.704;44.786;2024-02-04T13:50:11;12.82;;;6.60;;
79338;SDS011;74181;41.704;44.786;2024-02-04T13:52:37;15.07;;;6.78;;
79338;SDS011;74181;41.704;44.786;2024-02-04T13:55:04;16.47;;;7.13;;
79338;SDS011;74181;41.704;44.786;2024-02-04T13:57:32;14.25;;;7.13;;
79338;SDS011;74181;41.704;44.786;2024-02-04T13:59:59;13.30;;;6.82;;
79338;SDS011;74181;41.704;44.786;2024-02-04T14:02:26;13.80;;;6.68;;
79338;SDS011;74181;41.704;44.786;2024-02-04T14:04:56;12.57;;;6.70;;
79338;SDS011;74181;41.704;44.786;2024-02-04T14:07:23;15.67;;;7.17;;
79338;SDS011;74181;41.704;44.786;2024-02-04T14:09:49;14.52;;;7.13;;
79338;SDS011;74181;41.704;44.786;2024-02-04T14:12:16;16.73;;;7.65;;
79338;SDS011;74181;41.704;44.786;2024-02-04T14:14:42;13.13;;;6.80;;
79338;SDS011;74181;41.704;44.786;2024-02-04T14:17:09;14.93;;;6.88;;
79338;SDS011;74181;41.704;44.786;2024-02-04T14:19:35;15.43;;;6.57;;
79338;SDS011;74181;41.704;44.786;2024-02-04T14:22:02;14.85;;;6.95;;
79338;SDS011;74181;41.704;44.786;2024-02-04T14:24:28;15.50;;;7.30;;
79338;SDS011;74181;41.704;44.786;2024-02-04T14:26:58;14.68;;;7.35;;
79338;SDS011;74181;41.704;44.786;2024-02-04T14:29:25;15.77;;;7.57;;
79338;SDS011;74181;41.704;44.786;2024-02-04T14:31:52;14.67;;;7.57;;
79338;SDS011;74181;41.704;44.786;2024-02-04T14:34:18;18.95;;;8.15;;
79338;SDS011;74181;41.704;44.786;2024-02-04T14:36:44;16.33;;;8.32;;
79338;SDS011;74181;41.704;44.786;2024-02-04T14:39:10;14.90;;;7.97;;
79338;SDS011;74181;41.704;44.786;2024-02-04T14:41:36;13.40;;;6.60;;
79338;SDS011;74181;41.704;44.786;2024-02-04T14:44:03;15.23;;;7.70;;
79338;SDS011;74181;41.704;44.786;2024-02-04T14:46:30;15.90;;;7.82;;
79338;SDS011;74181;41.704;44.786;2024-02-04T14:48:56;19.08;;;7.97;;
79338;SDS011;74181;41.704;44.786;2024-02-04T14:51:22;15.10;;;8.10;;
79338;SDS011;74181;41.704;44.786;2024-02-04T14:53:48;15.48;;;8.10;;
79338;SDS011;74181;41.704;44.786;2024-02-04T14:56:15;18.13;;;8.30;;
79338;SDS011;74181;41.704;44.786;2024-02-04T14:58:41;18.17;;;8.38;;